Flight Track Log - Related Links

Times and Time Zones

All times are in EDT time to prevent confusion due to time zone crossing. See the SWA2624 flight status page for this flight to view local times or setup timezone preferences in your user account.

Time Position Orientation Groundspeed Altitude Reporting Facility
EDT Latitude Longitude Course Direction KTS MPH feet Rate Location/Type
Tue 06:47:29 PM 39.1500 -76.6667 270° West 193 222 2,100  Level Potomac TRACON
Tue 06:48:29 PM 39.1500 -76.7333 270° West 248 285 5,200 2,450 Climbing Potomac TRACON
Tue 06:49:29 PM 39.1833 -76.8333 293° West 289 333 7,000 2,430 Climbing Potomac TRACON
Tue 06:50:30 PM 39.2000 -76.9167 284° West 284 327 10,100 2,974 Climbing Potomac TRACON
Tue 06:51:24 PM 39.2167 -77.0167 282° West 316 364 12,700 3,316 Climbing Potomac TRACON
Tue 06:52:24 PM 39.2000 -77.1500 261° West 358 412 16,400 3,000 Climbing Potomac TRACON
Tue 06:54:50 PM 39.0581 -77.4094 235° Southwest 387 445 23,000 2,290 Climbing Washington Center
Tue 06:55:51 PM 39.0314 -77.5208 253° West 392 451 24,300 2,067 Climbing Washington Center
Tue 06:56:49 PM 38.9869 -77.6906 251° West 419 482 27,100 2,319 Climbing Washington Center
Tue 06:57:50 PM 38.9531 -77.8258 252° West 438 504 28,900 1,736 Climbing Washington Center
Tue 06:58:50 PM 38.9125 -77.9819 252° West 457 526 30,600 1,835 Climbing Washington Center
Tue 06:59:51 PM 38.8719 -78.1406 252° West 457 526 32,600 1,934 Climbing Washington Center
Tue 07:00:51 PM 38.8517 -78.2972 261° West 452 520 34,500 1,729 Climbing Washington Center
Tue 07:01:49 PM 38.8500 -78.4625 269° West 447 514 36,000 1,563 Climbing Washington Center
Tue 07:02:50 PM 38.8503 -78.6250 270° West 452 520 37,600 1,967 Climbing Washington Center
Tue 07:03:51 PM 38.8483 -78.7717 269° West 442 509 40,000 1,190 Climbing Washington Center
Tue 07:04:51 PM 38.8467 -78.9181 269° West 430 495 40,000  Level Washington Center
Tue 07:05:51 PM 38.8425 -79.0619 268° West 418 481 40,000  Level Washington Center
Tue 07:06:49 PM 38.8422 -79.2111 270° West 418 481 40,000  Level Washington Center
Tue 07:07:50 PM 38.8400 -79.3550 269° West 418 481 40,000  Level Washington Center
Tue 07:08:50 PM 38.8372 -79.5014 269° West 418 481 40,000  Level Washington Center
Tue 07:09:51 PM 38.8358 -79.6747 269° West 431 496 40,000  Level Washington Center
Tue 07:10:51 PM 38.8308 -79.8183 267° West 426 490 40,000  Level Washington Center
Tue 07:13:23 PM 38.8175 -80.1811 267° West 412 474 40,000  Level Indianapolis Center
Tue 07:14:25 PM 38.8142 -80.3292 268° West 416 479 40,000  Level Indianapolis Center
Tue 07:15:27 PM 38.8092 -80.4764 268° West 413 475 40,000  Level Indianapolis Center
Tue 07:16:28 PM 38.8058 -80.6225 268° West 412 474 40,000  Level Indianapolis Center
Tue 07:17:30 PM 38.8017 -80.7700 268° West 414 476 40,000  Level Indianapolis Center
Tue 07:18:32 PM 38.7964 -80.9161 267° West 411 473 40,000  Level Indianapolis Center
Tue 07:19:34 PM 38.7911 -81.0892 268° West 406 467 40,000  Level Indianapolis Center
Tue 07:20:36 PM 38.7856 -81.2344 267° West 409 471 40,000  Level Indianapolis Center
Tue 07:21:38 PM 38.7808 -81.3781 268° West 407 468 40,000  Level Indianapolis Center
Tue 07:22:40 PM 38.7742 -81.5364 267° West 410 472 40,000  Level Indianapolis Center
Tue 07:23:41 PM 38.7697 -81.6831 268° West 412 474 40,000  Level Indianapolis Center
Tue 07:24:43 PM 38.7628 -81.8353 267° West 410 472 40,000  Level Indianapolis Center
Tue 07:25:45 PM 38.7561 -81.9803 267° West 410 472 40,000  Level Indianapolis Center
Tue 07:26:47 PM 38.7511 -82.1258 268° West 410 472 40,000  Level Indianapolis Center
Tue 07:27:49 PM 38.7450 -82.2722 267° West 413 475 40,000  Level Indianapolis Center
Tue 07:28:51 PM 38.7400 -82.4189 268° West 413 475 40,000  Level Indianapolis Center
Tue 07:29:52 PM 38.7336 -82.5639 267° West 409 471 40,000  Level Indianapolis Center
Tue 07:30:54 PM 38.7264 -82.7375 267° West 407 468 40,000  Level Indianapolis Center
Tue 07:31:56 PM 38.7203 -82.8808 267° West 406 467 40,000  Level Indianapolis Center
Tue 07:32:58 PM 38.7139 -83.0267 267° West 409 471 40,000  Level Indianapolis Center
Tue 07:34:00 PM 38.7067 -83.1717 266° West 413 475 40,000  Level Indianapolis Center
Tue 07:35:02 PM 38.7003 -83.3200 267° West 413 475 40,000  Level Indianapolis Center
Tue 07:36:04 PM 38.6928 -83.4675 266° West 412 474 40,000  Level Indianapolis Center
Tue 07:37:06 PM 38.6844 -83.6403 267° West 412 474 40,000  Level Indianapolis Center
Tue 07:38:07 PM 38.6767 -83.7886 266° West 413 475 40,000  Level Indianapolis Center
Tue 07:39:09 PM 38.6694 -83.9392 267° West 419 482 40,000  Level Indianapolis Center
Tue 07:40:11 PM 38.6611 -84.0864 266° West 414 476 40,000  Level Indianapolis Center
Tue 07:41:13 PM 38.6536 -84.2358 266° West 417 480 40,000  Level Indianapolis Center
Tue 07:42:15 PM 38.6525 -84.3886 270° West 425 489 40,000  Level Indianapolis Center
Tue 07:43:16 PM 38.6633 -84.5553 275° West 425 489 40,000  Level Indianapolis Center
Tue 07:44:18 PM 38.6725 -84.7072 274° West 425 489 40,000  Level Indianapolis Center
Tue 07:45:20 PM 38.6811 -84.8594 274° West 426 490 40,000  Level Indianapolis Center
Tue 07:46:22 PM 38.6892 -85.0136 274° West 432 497 40,000  Level Indianapolis Center
Tue 07:47:24 PM 38.6983 -85.1681 274° West 433 498 40,000  Level Indianapolis Center
Tue 07:48:25 PM 38.7067 -85.3236 274° West 435 501 40,000  Level Indianapolis Center
Tue 07:49:27 PM 38.7144 -85.4775 274° West 430 495 40,000  Level Indianapolis Center
Tue 07:50:29 PM 38.7225 -85.6328 274° West 433 498 40,000  Level Indianapolis Center
Tue 07:51:31 PM 38.7308 -85.8131 273° West 430 495 40,000  Level Indianapolis Center
Tue 07:52:32 PM 38.7381 -85.9508 274° West 429 494 40,000  Level Indianapolis Center
Tue 07:53:34 PM 38.7453 -86.1017 274° West 426 490 40,000  Level Indianapolis Center
Tue 07:54:36 PM 38.7514 -86.2514 273° West 423 487 40,000  Level Indianapolis Center
Tue 07:55:37 PM 38.7575 -86.3997 273° West 419 482 40,000  Level Indianapolis Center
Tue 07:56:39 PM 38.7644 -86.5769 273° West 416 479 40,000  Level Indianapolis Center
Tue 07:57:41 PM 38.7711 -86.7242 273° West 416 479 40,000  Level Indianapolis Center
Tue 07:58:43 PM 38.7767 -86.8728 273° West 418 481 40,000  Level Indianapolis Center
Tue 07:59:44 PM 38.7828 -87.0206 273° West 418 481 40,000  Level Indianapolis Center
Tue 08:00:46 PM 38.7883 -87.1700 273° West 420 483 40,000  Level Indianapolis Center
Tue 08:01:48 PM 38.7939 -87.3183 273° West 421 484 40,000  Level Indianapolis Center
Tue 08:02:49 PM 38.7992 -87.4967 272° West 418 481 40,000  Level Indianapolis Center
Tue 08:03:51 PM 38.8042 -87.6458 273° West 420 483 40,000  Level Indianapolis Center
Tue 08:04:52 PM 38.8092 -87.7947 273° West 419 482 40,000  Level Indianapolis Center
Tue 08:05:54 PM 38.8131 -87.9442 272° West 419 482 40,000  Level Indianapolis Center
Tue 08:06:56 PM 38.8178 -88.0928 272° West 418 481 40,000  Level Indianapolis Center
Tue 08:07:58 PM 38.8217 -88.2419 272° West 418 481 40,000  Level Indianapolis Center
Tue 08:08:59 PM 38.8258 -88.3900 272° West 416 479 40,000  Level Indianapolis Center
Tue 08:10:05 PM 38.8297 -88.5681 272° West 415 478 40,000  Level Kansas City Center
Tue 08:11:07 PM 38.8319 -88.7142 271° West 416 479 40,000  Level Kansas City Center
Tue 08:12:09 PM 38.8358 -88.8614 272° West 416 479 40,000  Level Kansas City Center
Tue 08:13:11 PM 38.8392 -89.0253 272° West 416 479 40,000  Level Kansas City Center
Tue 08:14:13 PM 38.8431 -89.1836 272° West 415 478 40,000  Level Kansas City Center
Tue 08:15:15 PM 38.8456 -89.3303 271° West 413 475 40,000  Level Kansas City Center
Tue 08:16:17 PM 38.8494 -89.4886 272° West 415 478 40,000  Level Kansas City Center
Tue 08:17:18 PM 38.8519 -89.6358 271° West 415 478 40,000  Level Kansas City Center
Tue 08:18:20 PM 38.8528 -89.7739 270° West 414 476 40,000  Level Kansas City Center
Tue 08:19:22 PM 38.8547 -89.9214 271° West 415 478 40,000  Level Kansas City Center
Tue 08:20:24 PM 38.8592 -90.0942 272° West 414 476 40,000  Level Kansas City Center
Tue 08:21:26 PM 38.8603 -90.2442 271° West 418 481 40,000  Level Kansas City Center
Tue 08:22:28 PM 38.8597 -90.3922 270° West 418 481 40,000  Level Kansas City Center
Tue 08:23:30 PM 38.8375 -90.5411 259° West 419 482 40,000  Level Kansas City Center
Tue 08:24:32 PM 38.8200 -90.6811 261° West 419 482 40,000  Level Kansas City Center
Tue 08:25:34 PM 38.7981 -90.8561 261° West 418 481 40,000  Level Kansas City Center
Tue 08:26:35 PM 38.7797 -91.0042 261° West 423 487 40,000  Level Kansas City Center
Tue 08:27:37 PM 38.7603 -91.1531 261° West 425 489 40,000  Level Kansas City Center
Tue 08:28:39 PM 38.7411 -91.3011 261° West 424 488 40,000  Level Kansas City Center
Tue 08:29:41 PM 38.7222 -91.4511 261° West 426 490 40,000  Level Kansas City Center
Tue 08:30:43 PM 38.7011 -91.6133 261° West 427 491 40,000  Level Kansas City Center
Tue 08:31:45 PM 38.6803 -91.7628 260° West 428 493 40,000  Level Kansas City Center
Tue 08:32:47 PM 38.6592 -91.9131 260° West 429 494 40,000  Level Kansas City Center
Tue 08:33:49 PM 38.6350 -92.0919 260° West 428 493 40,000  Level Kansas City Center
Tue 08:34:51 PM 38.6139 -92.2419 260° West 429 494 40,000  Level Kansas City Center
Tue 08:35:52 PM 38.5919 -92.3911 259° West 429 494 40,000  Level Kansas City Center
Tue 08:36:54 PM 38.5711 -92.5400 260° West 428 493 40,000  Level Kansas City Center
Tue 08:37:56 PM 38.5494 -92.6892 260° West 429 494 40,000  Level Kansas City Center
Tue 08:38:58 PM 38.5278 -92.8403 260° West 431 496 40,000  Level Kansas City Center
Tue 08:40:00 PM 38.5011 -93.0197 259° West 431 496 40,000  Level Kansas City Center
Tue 08:41:02 PM 38.4792 -93.1678 259° West 428 493 40,000  Level Kansas City Center
Tue 08:42:03 PM 38.4575 -93.3169 260° West 428 493 40,000  Level Kansas City Center
Tue 08:43:05 PM 38.4353 -93.4656 259° West 427 491 40,000  Level Kansas City Center
Tue 08:44:07 PM 38.4133 -93.6139 259° West 427 491 40,000  Level Kansas City Center
Tue 08:45:08 PM 38.3900 -93.7631 259° West 428 493 40,000  Level Kansas City Center
Tue 08:46:10 PM 38.3672 -93.9128 259° West 429 494 40,000  Level Kansas City Center
Tue 08:47:12 PM 38.3442 -94.0611 259° West 428 493 40,000  Level Kansas City Center
Tue 08:48:14 PM 38.3208 -94.2169 259° West 427 491 40,000  Level Kansas City Center
Tue 08:49:15 PM 38.2942 -94.3839 259° West 428 493 40,000  Level Kansas City Center
Tue 08:50:17 PM 38.2711 -94.5283 259° West 430 495 40,000  Level Kansas City Center
Tue 08:51:19 PM 38.2433 -94.6939 258° West 430 495 40,000  Level Kansas City Center
Tue 08:52:21 PM 38.2208 -94.8356 259° West 428 493 40,000  Level Kansas City Center
Tue 08:53:22 PM 38.1936 -95.0014 258° West 428 493 40,000  Level Kansas City Center
Tue 08:54:24 PM 38.1708 -95.1442 259° West 429 494 40,000  Level Kansas City Center
Tue 08:55:26 PM 38.1475 -95.2864 258° West 428 493 40,000  Level Kansas City Center
Tue 08:56:27 PM 38.1189 -95.4506 258° West 427 491 40,000  Level Kansas City Center
Tue 08:57:29 PM 38.0956 -95.5903 258° West 423 487 40,000  Level Kansas City Center
Tue 08:58:31 PM 38.0678 -95.7556 258° West 426 490 40,000  Level Kansas City Center
Tue 08:59:33 PM 38.0431 -95.8953 257° West 425 489 40,000  Level Kansas City Center
Tue 09:00:34 PM 38.0186 -96.0364 258° West 427 491 40,000  Level Kansas City Center
Tue 09:01:36 PM 37.9911 -96.1928 257° West 430 495 40,000  Level Kansas City Center
Tue 09:02:38 PM 37.9650 -96.3383 257° West 425 489 40,000  Level Kansas City Center
Tue 09:03:39 PM 37.9389 -96.4894 258° West 426 490 40,000  Level Kansas City Center
Tue 09:04:41 PM 37.9131 -96.6308 257° West 424 488 40,000  Level Kansas City Center
Tue 09:05:43 PM 37.8831 -96.8067 258° West 426 490 40,000  Level Kansas City Center
Tue 09:06:45 PM 37.8553 -96.9522 256° West 425 489 40,000  Level Kansas City Center
Tue 09:07:46 PM 37.8286 -97.0997 257° West 429 494 40,000  Level Kansas City Center
Tue 09:08:48 PM 37.8011 -97.2450 257° West 425 489 40,000  Level Kansas City Center
Tue 09:09:50 PM 37.7742 -97.3908 257° West 425 489 40,000  Level Kansas City Center
Tue 09:10:51 PM 37.7464 -97.5394 257° West 424 488 40,000  Level Kansas City Center
Tue 09:11:53 PM 37.7189 -97.6819 256° West 421 484 40,000  Level Kansas City Center
Tue 09:12:55 PM 37.6917 -97.8264 257° West 421 484 40,000  Level Kansas City Center
Tue 09:13:56 PM 37.6589 -98.0003 257° West 421 484 40,000  Level Kansas City Center
Tue 09:14:58 PM 37.6322 -98.1425 257° West 420 483 40,000  Level Kansas City Center
Tue 09:16:00 PM 37.6022 -98.2925 256° West 421 484 40,000  Level Kansas City Center
Tue 09:17:01 PM 37.5739 -98.4364 256° West 422 486 40,000  Level Kansas City Center
Tue 09:18:03 PM 37.5453 -98.5794 256° West 421 484 40,000  Level Kansas City Center
Tue 09:19:05 PM 37.5169 -98.7225 256° West 421 484 40,000  Level Kansas City Center
Tue 09:20:06 PM 37.4889 -98.8653 256° West 420 483 40,000  Level Kansas City Center
Tue 09:21:08 PM 37.4600 -99.0075 256° West 420 483 40,000  Level Kansas City Center
Tue 09:22:09 PM 37.4297 -99.1486 255° West 418 481 40,000  Level Kansas City Center
Tue 09:23:11 PM 37.4028 -99.2903 257° West 417 480 40,000  Level Kansas City Center
Tue 09:24:13 PM 37.3722 -99.4314 255° West 418 481 40,000  Level Kansas City Center
Tue 09:25:14 PM 37.3408 -99.5850 256° West 417 480 40,000  Level Kansas City Center
Tue 09:26:16 PM 37.3053 -99.7433 254° West 421 484 40,000  Level Kansas City Center
Tue 09:27:18 PM 37.2703 -99.8769 252° West 420 483 40,000  Level Kansas City Center
Tue 09:28:19 PM 37.2308 -100.0339 253° West 420 483 40,000  Level Kansas City Center
Tue 09:29:21 PM 37.1972 -100.1672 252° West 420 483 40,000  Level Kansas City Center
Tue 09:30:22 PM 37.1586 -100.3231 253° West 418 481 40,000  Level Kansas City Center
Tue 09:31:24 PM 37.1250 -100.4558 252° West 417 480 40,000  Level Kansas City Center
Tue 09:32:26 PM 37.0903 -100.5886 252° West 417 480 40,000  Level Kansas City Center
Tue 09:33:27 PM 37.0497 -100.7419 252° West 415 478 40,000  Level Kansas City Center
Tue 09:34:29 PM 37.0161 -100.8753 253° West 417 480 40,000  Level Kansas City Center
Tue 09:35:31 PM 36.9753 -101.0317 252° West 420 483 40,000  Level Kansas City Center
Tue 09:36:32 PM 36.9406 -101.1633 252° West 418 481 40,000  Level Kansas City Center
Tue 09:37:34 PM 36.9050 -101.2956 251° West 418 481 40,000  Level Kansas City Center
Tue 09:38:21 PM 36.8764 -101.4056 252° West 417 480 40,000  Level Albuquerque Center
Tue 09:39:23 PM 36.8353 -101.5597 252° West 418 481 40,000  Level Albuquerque Center
Tue 09:40:24 PM 36.8000 -101.6911 251° West 418 481 40,000  Level Albuquerque Center
Tue 09:41:25 PM 36.7647 -101.8217 251° West 416 479 40,000  Level Albuquerque Center
Tue 09:42:26 PM 36.7219 -101.9750 251° West 418 481 40,000  Level Albuquerque Center
Tue 09:43:28 PM 36.6861 -102.1067 251° West 419 482 40,000  Level Albuquerque Center
Tue 09:44:29 PM 36.6483 -102.2497 252° West 418 481 40,000  Level Albuquerque Center
Tue 09:45:30 PM 36.5975 -102.3761 243° Southwest 416 479 40,000  Level Albuquerque Center
Tue 09:46:32 PM 36.5333 -102.4967 237° Southwest 418 481 40,000  Level Albuquerque Center
Tue 09:47:33 PM 36.4692 -102.6172 237° Southwest 421 484 40,000  Level Albuquerque Center
Tue 09:48:34 PM 36.4039 -102.7369 236° Southwest 421 484 40,000  Level Albuquerque Center
Tue 09:49:36 PM 36.3272 -102.8792 236° Southwest 416 479 40,000  Level Albuquerque Center
Tue 09:50:37 PM 36.2678 -102.9872 236° Southwest 416 479 40,000  Level Albuquerque Center
Tue 09:51:38 PM 36.2036 -103.1050 236° Southwest 411 473 40,000  Level Albuquerque Center
Tue 09:52:40 PM 36.1375 -103.2222 235° Southwest 411 473 40,000  Level Albuquerque Center
Tue 09:53:41 PM 36.0728 -103.3422 236° Southwest 415 478 40,000  Level Albuquerque Center
Tue 09:54:42 PM 35.9969 -103.4800 236° Southwest 414 476 40,000  Level Albuquerque Center
Tue 09:55:44 PM 35.9303 -103.5992 235° Southwest 418 481 40,000  Level Albuquerque Center
Tue 09:56:45 PM 35.8636 -103.7181 235° Southwest 418 481 40,000 -393 Level Albuquerque Center
Tue 09:57:46 PM 35.7972 -103.8372 236° Southwest 419 482 39,200 -885 Descending Albuquerque Center
Tue 09:58:47 PM 35.7325 -103.9544 236° Southwest 415 478 38,200 -927 Descending Albuquerque Center
Tue 09:59:49 PM 35.6675 -104.0697 235° Southwest 410 472 37,300 -927 Descending Albuquerque Center
Tue 10:00:50 PM 35.6008 -104.1864 235° Southwest 414 476 36,300 -639 Descending Albuquerque Center
Tue 10:01:51 PM 35.5339 -104.3033 235° Southwest 418 481 36,000 -146 Descending Albuquerque Center
Tue 10:02:53 PM 35.4678 -104.4206 235° Southwest 418 481 36,000  Level Albuquerque Center
Tue 10:03:54 PM 35.4011 -104.5364 235° Southwest 417 480 36,000  Level Albuquerque Center
Tue 10:04:55 PM 35.3228 -104.6728 235° Southwest 418 481 36,000  Level Albuquerque Center
Tue 10:05:56 PM 35.2553 -104.7903 235° Southwest 420 483 36,000 -390 Level Albuquerque Center
Tue 10:06:58 PM 35.1875 -104.9083 235° Southwest 421 484 35,200 -1,707 Descending Albuquerque Center
Tue 10:07:59 PM 35.1217 -105.0247 235° Southwest 416 479 32,500 -2,459 Descending Albuquerque Center
Tue 10:09:00 PM 35.0956 -105.1586 257° West 407 468 30,200 -2,164 Descending Albuquerque Center
Tue 10:10:01 PM 35.0756 -105.2914 260° West 397 457 28,100 -2,185 Descending Albuquerque Center
Tue 10:12:04 PM 35.0336 -105.5489 259° West 383 441 23,500 -2,217 Descending Albuquerque Center
Tue 10:13:05 PM 35.0139 -105.6714 259° West 370 426 21,300 -2,242 Descending Albuquerque Center
Tue 10:13:35 PM 35.0022 -105.7389 258° West 351 404 20,100 -2,032 Descending Albuquerque Center
Tue 10:14:07 PM 34.9936 -105.7864 258° West 351 404 19,200 -2,000 Descending Albuquerque Center
Tue 10:15:08 PM 34.9750 -105.9044 259° West 333 383 17,000 -1,721 Descending Albuquerque Center
Tue 10:16:09 PM 34.9581 -106.0075 259° West 316 364 15,700 -1,435 Descending Albuquerque Center
Tue 10:18:12 PM 34.9586 -106.2075 270° West 301 346 12,600 -1,438 Descending Albuquerque Center
Tue 10:19:21 PM 34.9589 -106.3289 270° West 285 328 11,100 -1,209 Descending Albuquerque Center
Tue 10:20:21 PM 34.9369 -106.4100 252° West 249 287 10,000 -835 Descending Albuquerque Center
Tue 10:21:16 PM 34.9189 -106.4669 249° West 254 292 9,500 -828 Descending Albuquerque Center
Tue 10:22:17 PM 34.9375 -106.5236 292° West 216 249 8,400 -1,024 Descending Albuquerque Center
Tue 10:23:19 PM 34.9867 -106.5250 359° North 196 226 7,400 -942 Descending Albuquerque Center
Tue 10:24:18 PM 35.0342 -106.5142 11° North 146 168 6,500 -807 Descending Albuquerque Center
Tue 10:25:18 PM 35.0433 -106.5533 286° West 117 135 5,800 -576 Descending Albuquerque Center
Tue 10:26:23 PM 35.0442 -106.5925 271° West 134 154 5,300 -462 Descending Albuquerque Center
Tue 10:28:00 PM 35.0333 -106.6000 270° West  Level FlightAware Approximate

Login

Don't have an account? Register now (free) for customized features, flight alerts, and more!